sensor_id;sensor_type;location;lat;lon;timestamp;P1;durP1;ratioP1;P2;durP2;ratioP2
8476;SDS011;4275;42.854;23.222;2023-06-10T00:00:59;10.70;;;10.40;;
8476;SDS011;4275;42.854;23.222;2023-06-10T00:03:26;10.65;;;10.35;;
8476;SDS011;4275;42.854;23.222;2023-06-10T00:05:53;10.60;;;10.30;;
8476;SDS011;4275;42.854;23.222;2023-06-10T00:08:20;10.68;;;10.38;;
8476;SDS011;4275;42.854;23.222;2023-06-10T00:10:49;11.20;;;10.90;;
8476;SDS011;4275;42.854;23.222;2023-06-10T00:13:16;11.70;;;11.40;;
8476;SDS011;4275;42.854;23.222;2023-06-10T00:15:43;11.65;;;11.35;;
8476;SDS011;4275;42.854;23.222;2023-06-10T00:18:10;12.05;;;11.68;;
8476;SDS011;4275;42.854;23.222;2023-06-10T00:20:37;10.90;;;10.60;;
8476;SDS011;4275;42.854;23.222;2023-06-10T00:23:04;10.45;;;10.15;;
8476;SDS011;4275;42.854;23.222;2023-06-10T00:25:33;10.38;;;10.07;;
8476;SDS011;4275;42.854;23.222;2023-06-10T00:28:02;10.68;;;10.38;;
8476;SDS011;4275;42.854;23.222;2023-06-10T00:30:29;10.82;;;10.52;;
8476;SDS011;4275;42.854;23.222;2023-06-10T00:32:56;10.73;;;10.43;;
8476;SDS011;4275;42.854;23.222;2023-06-10T00:35:23;11.73;;;11.43;;
8476;SDS011;4275;42.854;23.222;2023-06-10T00:37:50;11.60;;;11.30;;
8476;SDS011;4275;42.854;23.222;2023-06-10T00:43:40;10.50;;;10.20;;
8476;SDS011;4275;42.854;23.222;2023-06-10T00:46:07;10.25;;;9.95;;
8476;SDS011;4275;42.854;23.222;2023-06-10T00:48:34;10.40;;;10.10;;
8476;SDS011;4275;42.854;23.222;2023-06-10T00:51:01;10.00;;;9.70;;
8476;SDS011;4275;42.854;23.222;2023-06-10T00:53:28;9.80;;;9.50;;
8476;SDS011;4275;42.854;23.222;2023-06-10T00:55:55;9.82;;;9.52;;
8476;SDS011;4275;42.854;23.222;2023-06-10T01:01:46;9.88;;;9.57;;
8476;SDS011;4275;42.854;23.222;2023-06-10T01:10:57;10.00;;;9.70;;
8476;SDS011;4275;42.854;23.222;2023-06-10T01:13:27;9.80;;;9.50;;
8476;SDS011;4275;42.854;23.222;2023-06-10T01:15:57;10.48;;;10.18;;
8476;SDS011;4275;42.854;23.222;2023-06-10T01:18:31;9.80;;;9.50;;
8476;SDS011;4275;42.854;23.222;2023-06-10T01:20:58;10.10;;;9.80;;
8476;SDS011;4275;42.854;23.222;2023-06-10T01:23:26;11.10;;;10.80;;
8476;SDS011;4275;42.854;23.222;2023-06-10T01:25:55;11.68;;;11.38;;
8476;SDS011;4275;42.854;23.222;2023-06-10T01:31:52;12.82;;;12.43;;
8476;SDS011;4275;42.854;23.222;2023-06-10T01:34:28;12.30;;;11.90;;
8476;SDS011;4275;42.854;23.222;2023-06-10T01:37:01;13.70;;;13.30;;
8476;SDS011;4275;42.854;23.222;2023-06-10T01:42:18;14.52;;;14.02;;
8476;SDS011;4275;42.854;23.222;2023-06-10T01:44:47;13.75;;;13.35;;
8476;SDS011;4275;42.854;23.222;2023-06-10T01:47:14;19.08;;;18.27;;
8476;SDS011;4275;42.854;23.222;2023-06-10T01:49:41;19.10;;;18.30;;
8476;SDS011;4275;42.854;23.222;2023-06-10T01:52:08;18.67;;;17.88;;
8476;SDS011;4275;42.854;23.222;2023-06-10T01:54:35;17.63;;;16.92;;
8476;SDS011;4275;42.854;23.222;2023-06-10T01:57:03;17.52;;;16.83;;
8476;SDS011;4275;42.854;23.222;2023-06-10T01:59:31;16.30;;;15.70;;
8476;SDS011;4275;42.854;23.222;2023-06-10T02:01:58;16.95;;;16.35;;
8476;SDS011;4275;42.854;23.222;2023-06-10T02:04:25;17.00;;;16.40;;
8476;SDS011;4275;42.854;23.222;2023-06-10T02:06:52;16.30;;;15.70;;
8476;SDS011;4275;42.854;23.222;2023-06-10T02:09:21;16.42;;;15.82;;
8476;SDS011;4275;42.854;23.222;2023-06-10T02:11:48;16.80;;;16.20;;
8476;SDS011;4275;42.854;23.222;2023-06-10T02:14:16;15.65;;;15.15;;
8476;SDS011;4275;42.854;23.222;2023-06-10T02:16:43;14.90;;;14.40;;
8476;SDS011;4275;42.854;23.222;2023-06-10T02:19:12;16.10;;;15.60;;
8476;SDS011;4275;42.854;23.222;2023-06-10T02:21:39;15.00;;;14.50;;
8476;SDS011;4275;42.854;23.222;2023-06-10T02:24:06;15.55;;;15.05;;
8476;SDS011;4275;42.854;23.222;2023-06-10T02:26:33;14.75;;;14.30;;
8476;SDS011;4275;42.854;23.222;2023-06-10T02:29:00;14.55;;;14.15;;
8476;SDS011;4275;42.854;23.222;2023-06-10T02:31:30;13.30;;;12.90;;
8476;SDS011;4275;42.854;23.222;2023-06-10T02:33:57;13.48;;;13.07;;
8476;SDS011;4275;42.854;23.222;2023-06-10T02:36:24;12.90;;;12.50;;
8476;SDS011;4275;42.854;23.222;2023-06-10T02:38:53;13.70;;;13.30;;
8476;SDS011;4275;42.854;23.222;2023-06-10T02:41:20;13.40;;;13.00;;
8476;SDS011;4275;42.854;23.222;2023-06-10T02:43:48;14.18;;;13.77;;
8476;SDS011;4275;42.854;23.222;2023-06-10T02:49:48;15.45;;;14.95;;
8476;SDS011;4275;42.854;23.222;2023-06-10T02:52:15;12.95;;;12.55;;
8476;SDS011;4275;42.854;23.222;2023-06-10T02:54:42;12.63;;;12.23;;
8476;SDS011;4275;42.854;23.222;2023-06-10T02:57:10;13.50;;;13.10;;
8476;SDS011;4275;42.854;23.222;2023-06-10T02:59:39;13.27;;;12.88;;
8476;SDS011;4275;42.854;23.222;2023-06-10T03:02:06;12.80;;;12.40;;
8476;SDS011;4275;42.854;23.222;2023-06-10T03:04:33;12.90;;;12.50;;
8476;SDS011;4275;42.854;23.222;2023-06-10T03:07:04;12.98;;;12.57;;
8476;SDS011;4275;42.854;23.222;2023-06-10T03:09:32;12.32;;;12.02;;
8476;SDS011;4275;42.854;23.222;2023-06-10T03:11:59;11.15;;;10.85;;
8476;SDS011;4275;42.854;23.222;2023-06-10T03:14:26;11.13;;;10.82;;
8476;SDS011;4275;42.854;23.222;2023-06-10T03:16:53;11.85;;;11.55;;
8476;SDS011;4275;42.854;23.222;2023-06-10T03:19:21;13.18;;;12.77;;
8476;SDS011;4275;42.854;23.222;2023-06-10T03:21:49;13.00;;;12.60;;
8476;SDS011;4275;42.854;23.222;2023-06-10T03:24:22;12.70;;;12.30;;
8476;SDS011;4275;42.854;23.222;2023-06-10T03:26:50;11.85;;;11.55;;
8476;SDS011;4275;42.854;23.222;2023-06-10T03:29:17;12.07;;;11.77;;
8476;SDS011;4275;42.854;23.222;2023-06-10T03:31:44;10.70;;;10.40;;
8476;SDS011;4275;42.854;23.222;2023-06-10T03:34:11;12.40;;;12.00;;
8476;SDS011;4275;42.854;23.222;2023-06-10T03:36:38;12.00;;;11.70;;
8476;SDS011;4275;42.854;23.222;2023-06-10T03:39:08;11.52;;;11.23;;
8476;SDS011;4275;42.854;23.222;2023-06-10T03:41:36;11.73;;;11.43;;
8476;SDS011;4275;42.854;23.222;2023-06-10T03:44:03;11.65;;;11.35;;
8476;SDS011;4275;42.854;23.222;2023-06-10T03:46:30;11.80;;;11.50;;
8476;SDS011;4275;42.854;23.222;2023-06-10T03:48:57;12.60;;;12.20;;
8476;SDS011;4275;42.854;23.222;2023-06-10T03:51:26;12.90;;;12.50;;
8476;SDS011;4275;42.854;23.222;2023-06-10T03:53:53;12.90;;;12.50;;
8476;SDS011;4275;42.854;23.222;2023-06-10T03:56:20;15.00;;;14.50;;
8476;SDS011;4275;42.854;23.222;2023-06-10T03:58:48;13.77;;;13.38;;
8476;SDS011;4275;42.854;23.222;2023-06-10T04:01:15;15.10;;;14.60;;
8476;SDS011;4275;42.854;23.222;2023-06-10T04:03:46;13.80;;;13.40;;
8476;SDS011;4275;42.854;23.222;2023-06-10T04:06:14;15.07;;;14.57;;
8476;SDS011;4275;42.854;23.222;2023-06-10T04:08:41;15.43;;;14.93;;
8476;SDS011;4275;42.854;23.222;2023-06-10T04:11:08;16.13;;;15.52;;
8476;SDS011;4275;42.854;23.222;2023-06-10T04:13:36;16.65;;;16.05;;
8476;SDS011;4275;42.854;23.222;2023-06-10T04:16:04;17.10;;;16.50;;
8476;SDS011;4275;42.854;23.222;2023-06-10T04:18:32;16.30;;;15.70;;
8476;SDS011;4275;42.854;23.222;2023-06-10T04:20:58;15.13;;;14.63;;
8476;SDS011;4275;42.854;23.222;2023-06-10T04:23:26;13.60;;;13.20;;
8476;SDS011;4275;42.854;23.222;2023-06-10T04:25:54;13.88;;;13.48;;
8476;SDS011;4275;42.854;23.222;2023-06-10T04:28:21;14.30;;;13.80;;
8476;SDS011;4275;42.854;23.222;2023-06-10T04:30:48;13.50;;;13.10;;
8476;SDS011;4275;42.854;23.222;2023-06-10T04:33:16;13.23;;;12.82;;
8476;SDS011;4275;42.854;23.222;2023-06-10T04:35:43;11.55;;;11.25;;
8476;SDS011;4275;42.854;23.222;2023-06-10T04:38:12;11.70;;;11.40;;
8476;SDS011;4275;42.854;23.222;2023-06-10T04:40:39;11.45;;;11.15;;
8476;SDS011;4275;42.854;23.222;2023-06-10T04:43:07;11.18;;;10.88;;
8476;SDS011;4275;42.854;23.222;2023-06-10T04:45:34;10.13;;;9.82;;
8476;SDS011;4275;42.854;23.222;2023-06-10T04:48:01;9.50;;;9.20;;
8476;SDS011;4275;42.854;23.222;2023-06-10T04:50:30;10.23;;;9.93;;
8476;SDS011;4275;42.854;23.222;2023-06-10T04:52:58;10.80;;;10.50;;
8476;SDS011;4275;42.854;23.222;2023-06-10T04:55:25;10.90;;;10.60;;
8476;SDS011;4275;42.854;23.222;2023-06-10T04:57:52;11.63;;;11.30;;
8476;SDS011;4275;42.854;23.222;2023-06-10T05:00:20;12.90;;;12.50;;
8476;SDS011;4275;42.854;23.222;2023-06-10T05:02:47;14.02;;;13.52;;
8476;SDS011;4275;42.854;23.222;2023-06-10T05:05:17;17.35;;;16.65;;
8476;SDS011;4275;42.854;23.222;2023-06-10T05:07:45;17.90;;;17.20;;
8476;SDS011;4275;42.854;23.222;2023-06-10T05:10:12;19.38;;;18.50;;
8476;SDS011;4275;42.854;23.222;2023-06-10T05:12:42;18.98;;;18.17;;
8476;SDS011;4275;42.854;23.222;2023-06-10T05:15:10;17.48;;;16.77;;
8476;SDS011;4275;42.854;23.222;2023-06-10T05:17:37;17.65;;;16.95;;
8476;SDS011;4275;42.854;23.222;2023-06-10T05:20:04;21.10;;;20.15;;
8476;SDS011;4275;42.854;23.222;2023-06-10T05:22:33;22.08;;;21.08;;
8476;SDS011;4275;42.854;23.222;2023-06-10T05:25:02;22.48;;;21.48;;
8476;SDS011;4275;42.854;23.222;2023-06-10T05:27:29;20.27;;;19.38;;
8476;SDS011;4275;42.854;23.222;2023-06-10T05:29:56;20.50;;;19.60;;
8476;SDS011;4275;42.854;23.222;2023-06-10T05:32:23;17.80;;;17.10;;
8476;SDS011;4275;42.854;23.222;2023-06-10T05:34:50;17.30;;;16.60;;
8476;SDS011;4275;42.854;23.222;2023-06-10T05:37:17;16.65;;;16.05;;
8476;SDS011;4275;42.854;23.222;2023-06-10T05:39:44;17.23;;;16.63;;
8476;SDS011;4275;42.854;23.222;2023-06-10T05:42:13;17.75;;;17.05;;
8476;SDS011;4275;42.854;23.222;2023-06-10T05:44:40;17.60;;;16.90;;
8476;SDS011;4275;42.854;23.222;2023-06-10T05:47:07;16.00;;;15.40;;
8476;SDS011;4275;42.854;23.222;2023-06-10T05:49:34;15.20;;;14.70;;
8476;SDS011;4275;42.854;23.222;2023-06-10T05:52:00;15.55;;;15.05;;
8476;SDS011;4275;42.854;23.222;2023-06-10T05:54:27;16.27;;;15.68;;
8476;SDS011;4275;42.854;23.222;2023-06-10T05:56:54;15.90;;;15.30;;
8476;SDS011;4275;42.854;23.222;2023-06-10T05:59:23;16.83;;;16.23;;
8476;SDS011;4275;42.854;23.222;2023-06-10T06:01:50;15.52;;;15.02;;
8476;SDS011;4275;42.854;23.222;2023-06-10T06:04:17;15.50;;;15.00;;
8476;SDS011;4275;42.854;23.222;2023-06-10T06:06:44;15.10;;;14.60;;
8476;SDS011;4275;42.854;23.222;2023-06-10T06:09:11;15.23;;;14.73;;
8476;SDS011;4275;42.854;23.222;2023-06-10T06:11:38;15.50;;;15.00;;
8476;SDS011;4275;42.854;23.222;2023-06-10T06:14:05;15.15;;;14.65;;
8476;SDS011;4275;42.854;23.222;2023-06-10T06:16:33;14.80;;;14.30;;
8476;SDS011;4275;42.854;23.222;2023-06-10T06:19:00;14.70;;;14.20;;
8476;SDS011;4275;42.854;23.222;2023-06-10T06:21:27;14.90;;;14.40;;
8476;SDS011;4275;42.854;23.222;2023-06-10T06:23:54;14.77;;;14.27;;
8476;SDS011;4275;42.854;23.222;2023-06-10T06:26:21;32.60;;;30.70;;
8476;SDS011;4275;42.854;23.222;2023-06-10T06:28:48;14.38;;;13.88;;
8476;SDS011;4275;42.854;23.222;2023-06-10T06:31:15;13.48;;;13.07;;
8476;SDS011;4275;42.854;23.222;2023-06-10T06:33:44;14.80;;;14.30;;
8476;SDS011;4275;42.854;23.222;2023-06-10T06:36:10;14.57;;;14.07;;
8476;SDS011;4275;42.854;23.222;2023-06-10T06:38:38;15.00;;;14.50;;
8476;SDS011;4275;42.854;23.222;2023-06-10T06:41:04;15.50;;;14.90;;
8476;SDS011;4275;42.854;23.222;2023-06-10T06:43:32;14.75;;;14.25;;
8476;SDS011;4275;42.854;23.222;2023-06-10T06:45:59;14.40;;;13.90;;
8476;SDS011;4275;42.854;23.222;2023-06-10T06:48:25;14.23;;;13.73;;
8476;SDS011;4275;42.854;23.222;2023-06-10T06:50:54;14.27;;;13.77;;
8476;SDS011;4275;42.854;23.222;2023-06-10T06:53:23;14.30;;;13.80;;
8476;SDS011;4275;42.854;23.222;2023-06-10T06:55:50;13.85;;;13.35;;
8476;SDS011;4275;42.854;23.222;2023-06-10T06:58:17;13.85;;;13.35;;
8476;SDS011;4275;42.854;23.222;2023-06-10T07:00:44;13.60;;;13.20;;
8476;SDS011;4275;42.854;23.222;2023-06-10T07:03:11;14.13;;;13.63;;
8476;SDS011;4275;42.854;23.222;2023-06-10T07:05:38;14.32;;;13.82;;
8476;SDS011;4275;42.854;23.222;2023-06-10T07:08:06;14.27;;;13.77;;
8476;SDS011;4275;42.854;23.222;2023-06-10T07:10:33;12.70;;;12.30;;
8476;SDS011;4275;42.854;23.222;2023-06-10T07:13:00;13.23;;;12.82;;
8476;SDS011;4275;42.854;23.222;2023-06-10T07:15:27;13.40;;;13.00;;
8476;SDS011;4275;42.854;23.222;2023-06-10T07:17:54;14.00;;;13.55;;
8476;SDS011;4275;42.854;23.222;2023-06-10T07:20:21;14.02;;;13.52;;
8476;SDS011;4275;42.854;23.222;2023-06-10T07:22:49;14.65;;;14.15;;
8476;SDS011;4275;42.854;23.222;2023-06-10T07:25:17;14.45;;;13.85;;
8476;SDS011;4275;42.854;23.222;2023-06-10T07:27:44;14.75;;;14.05;;
8476;SDS011;4275;42.854;23.222;2023-06-10T07:30:11;15.15;;;14.45;;
8476;SDS011;4275;42.854;23.222;2023-06-10T07:32:39;15.27;;;14.48;;
8476;SDS011;4275;42.854;23.222;2023-06-10T07:35:08;15.30;;;14.50;;
8476;SDS011;4275;42.854;23.222;2023-06-10T07:37:36;15.27;;;14.38;;
8476;SDS011;4275;42.854;23.222;2023-06-10T07:40:03;15.77;;;14.88;;
8476;SDS011;4275;42.854;23.222;2023-06-10T07:42:34;16.50;;;15.50;;
8476;SDS011;4275;42.854;23.222;2023-06-10T07:45:01;17.00;;;16.00;;
8476;SDS011;4275;42.854;23.222;2023-06-10T07:47:29;16.48;;;15.57;;
8476;SDS011;4275;42.854;23.222;2023-06-10T07:49:56;15.93;;;15.02;;
8476;SDS011;4275;42.854;23.222;2023-06-10T07:52:23;16.08;;;15.18;;
8476;SDS011;4275;42.854;23.222;2023-06-10T07:54:51;16.10;;;15.20;;
8476;SDS011;4275;42.854;23.222;2023-06-10T07:57:18;16.50;;;15.50;;
8476;SDS011;4275;42.854;23.222;2023-06-10T07:59:47;16.65;;;15.65;;
8476;SDS011;4275;42.854;23.222;2023-06-10T08:02:14;16.27;;;15.30;;
8476;SDS011;4275;42.854;23.222;2023-06-10T08:04:41;17.65;;;16.45;;
8476;SDS011;4275;42.854;23.222;2023-06-10T08:07:08;17.92;;;16.63;;
8476;SDS011;4275;42.854;23.222;2023-06-10T08:09:35;18.02;;;16.73;;
8476;SDS011;4275;42.854;23.222;2023-06-10T08:12:02;18.00;;;16.80;;
8476;SDS011;4275;42.854;23.222;2023-06-10T08:14:30;16.33;;;15.40;;
8476;SDS011;4275;42.854;23.222;2023-06-10T08:16:59;16.90;;;15.90;;
8476;SDS011;4275;42.854;23.222;2023-06-10T08:19:26;17.30;;;16.20;;
8476;SDS011;4275;42.854;23.222;2023-06-10T08:21:53;17.77;;;16.67;;
8476;SDS011;4275;42.854;23.222;2023-06-10T08:24:20;17.80;;;16.70;;
8476;SDS011;4275;42.854;23.222;2023-06-10T08:26:47;17.80;;;16.70;;
8476;SDS011;4275;42.854;23.222;2023-06-10T08:29:14;17.75;;;16.75;;
8476;SDS011;4275;42.854;23.222;2023-06-10T08:31:41;18.10;;;17.10;;
8476;SDS011;4275;42.854;23.222;2023-06-10T08:34:10;18.50;;;17.40;;
8476;SDS011;4275;42.854;23.222;2023-06-10T08:36:37;17.60;;;16.60;;
8476;SDS011;4275;42.854;23.222;2023-06-10T08:39:04;17.48;;;16.58;;
8476;SDS011;4275;42.854;23.222;2023-06-10T08:41:32;17.40;;;16.50;;
8476;SDS011;4275;42.854;23.222;2023-06-10T08:44:03;18.10;;;17.10;;
8476;SDS011;4275;42.854;23.222;2023-06-10T08:46:39;17.88;;;16.88;;
8476;SDS011;4275;42.854;23.222;2023-06-10T08:49:15;17.30;;;16.40;;
8476;SDS011;4275;42.854;23.222;2023-06-10T08:51:47;17.55;;;16.65;;
8476;SDS011;4275;42.854;23.222;2023-06-10T08:54:17;18.38;;;17.38;;
8476;SDS011;4275;42.854;23.222;2023-06-10T08:56:48;18.33;;;17.33;;
8476;SDS011;4275;42.854;23.222;2023-06-10T08:59:17;17.45;;;16.45;;
8476;SDS011;4275;42.854;23.222;2023-06-10T09:01:46;18.15;;;17.25;;
8476;SDS011;4275;42.854;23.222;2023-06-10T09:04:15;19.00;;;17.90;;
8476;SDS011;4275;42.854;23.222;2023-06-10T09:06:43;19.20;;;18.10;;
8476;SDS011;4275;42.854;23.222;2023-06-10T09:09:11;18.55;;;17.45;;
8476;SDS011;4275;42.854;23.222;2023-06-10T09:11:40;19.77;;;18.67;;
8476;SDS011;4275;42.854;23.222;2023-06-10T09:14:08;19.90;;;18.80;;
8476;SDS011;4275;42.854;23.222;2023-06-10T09:16:37;20.13;;;18.92;;
8476;SDS011;4275;42.854;23.222;2023-06-10T09:19:04;20.35;;;19.15;;
8476;SDS011;4275;42.854;23.222;2023-06-10T09:21:34;20.45;;;19.25;;
8476;SDS011;4275;42.854;23.222;2023-06-10T09:24:02;24.63;;;22.75;;
8476;SDS011;4275;42.854;23.222;2023-06-10T09:26:30;21.23;;;20.02;;
8476;SDS011;4275;42.854;23.222;2023-06-10T09:28:57;20.95;;;19.75;;
8476;SDS011;4275;42.854;23.222;2023-06-10T09:31:30;20.65;;;19.55;;
8476;SDS011;4275;42.854;23.222;2023-06-10T09:34:04;21.00;;;19.80;;
8476;SDS011;4275;42.854;23.222;2023-06-10T09:36:34;22.30;;;21.00;;
8476;SDS011;4275;42.854;23.222;2023-06-10T09:39:02;22.60;;;21.27;;
8476;SDS011;4275;42.854;23.222;2023-06-10T09:41:33;22.83;;;21.45;;
8476;SDS011;4275;42.854;23.222;2023-06-10T09:44:01;22.23;;;20.92;;
8476;SDS011;4275;42.854;23.222;2023-06-10T09:46:30;22.27;;;20.88;;
8476;SDS011;4275;42.854;23.222;2023-06-10T09:48:58;23.67;;;22.27;;
8476;SDS011;4275;42.854;23.222;2023-06-10T09:51:26;23.40;;;22.00;;
8476;SDS011;4275;42.854;23.222;2023-06-10T09:53:54;23.40;;;22.00;;
8476;SDS011;4275;42.854;23.222;2023-06-10T09:56:22;24.60;;;23.10;;
8476;SDS011;4275;42.854;23.222;2023-06-10T09:59:00;24.38;;;22.98;;
8476;SDS011;4275;42.854;23.222;2023-06-10T10:01:27;24.55;;;23.15;;
8476;SDS011;4275;42.854;23.222;2023-06-10T10:03:54;23.95;;;22.55;;
8476;SDS011;4275;42.854;23.222;2023-06-10T10:06:21;24.00;;;22.60;;
8476;SDS011;4275;42.854;23.222;2023-06-10T10:08:49;23.90;;;22.50;;
8476;SDS011;4275;42.854;23.222;2023-06-10T10:11:19;22.35;;;21.05;;
8476;SDS011;4275;42.854;23.222;2023-06-10T10:13:48;22.80;;;21.50;;
8476;SDS011;4275;42.854;23.222;2023-06-10T10:16:16;22.30;;;21.00;;
8476;SDS011;4275;42.854;23.222;2023-06-10T10:18:46;21.48;;;20.17;;
8476;SDS011;4275;42.854;23.222;2023-06-10T10:21:21;21.15;;;19.85;;
8476;SDS011;4275;42.854;23.222;2023-06-10T10:23:52;23.05;;;21.65;;
8476;SDS011;4275;42.854;23.222;2023-06-10T10:26:26;23.02;;;21.63;;
8476;SDS011;4275;42.854;23.222;2023-06-10T10:28:58;23.80;;;22.40;;
8476;SDS011;4275;42.854;23.222;2023-06-10T10:31:32;23.60;;;22.20;;
8476;SDS011;4275;42.854;23.222;2023-06-10T10:34:02;24.23;;;22.73;;
8476;SDS011;4275;42.854;23.222;2023-06-10T10:36:33;22.63;;;21.23;;
8476;SDS011;4275;42.854;23.222;2023-06-10T10:39:01;23.70;;;22.25;;
8476;SDS011;4275;42.854;23.222;2023-06-10T10:41:32;24.08;;;22.58;;
8476;SDS011;4275;42.854;23.222;2023-06-10T10:44:00;24.38;;;22.88;;
8476;SDS011;4275;42.854;23.222;2023-06-10T10:46:30;25.05;;;23.45;;
8476;SDS011;4275;42.854;23.222;2023-06-10T10:49:07;26.73;;;25.23;;
8476;SDS011;4275;42.854;23.222;2023-06-10T10:51:37;26.30;;;24.80;;
8476;SDS011;4275;42.854;23.222;2023-06-10T10:54:10;26.60;;;25.10;;
8476;SDS011;4275;42.854;23.222;2023-06-10T10:56:40;27.17;;;25.67;;
8476;SDS011;4275;42.854;23.222;2023-06-10T10:59:43;23.50;;;22.10;;
8476;SDS011;4275;42.854;23.222;2023-06-10T11:02:14;23.50;;;22.10;;
8476;SDS011;4275;42.854;23.222;2023-06-10T11:04:44;24.85;;;23.45;;
8476;SDS011;4275;42.854;23.222;2023-06-10T11:07:12;26.63;;;25.13;;
8476;SDS011;4275;42.854;23.222;2023-06-10T11:09:56;24.38;;;22.88;;
8476;SDS011;4275;42.854;23.222;2023-06-10T11:12:26;24.67;;;23.27;;
8476;SDS011;4275;42.854;23.222;2023-06-10T11:15:07;26.52;;;25.10;;
8476;SDS011;4275;42.854;23.222;2023-06-10T11:17:34;26.05;;;24.55;;
8476;SDS011;4275;42.854;23.222;2023-06-10T11:20:02;24.73;;;23.23;;
8476;SDS011;4275;42.854;23.222;2023-06-10T11:22:30;25.40;;;23.90;;
8476;SDS011;4275;42.854;23.222;2023-06-10T11:24:57;26.95;;;25.45;;
8476;SDS011;4275;42.854;23.222;2023-06-10T11:27:26;26.92;;;25.42;;
8476;SDS011;4275;42.854;23.222;2023-06-10T11:30:20;24.70;;;23.20;;
8476;SDS011;4275;42.854;23.222;2023-06-10T11:32:50;23.77;;;22.30;;
8476;SDS011;4275;42.854;23.222;2023-06-10T11:35:19;26.40;;;24.92;;
8476;SDS011;4275;42.854;23.222;2023-06-10T11:37:47;25.00;;;23.50;;
8476;SDS011;4275;42.854;23.222;2023-06-10T11:40:14;26.15;;;24.65;;
8476;SDS011;4275;42.854;23.222;2023-06-10T11:42:43;25.55;;;24.05;;
8476;SDS011;4275;42.854;23.222;2023-06-10T11:45:14;25.30;;;23.83;;
8476;SDS011;4275;42.854;23.222;2023-06-10T11:47:55;28.17;;;26.58;;
8476;SDS011;4275;42.854;23.222;2023-06-10T11:50:29;25.52;;;24.13;;
8476;SDS011;4275;42.854;23.222;2023-06-10T11:52:57;24.15;;;22.65;;
8476;SDS011;4275;42.854;23.222;2023-06-10T11:55:24;24.35;;;22.85;;
8476;SDS011;4275;42.854;23.222;2023-06-10T11:57:53;28.83;;;27.23;;
8476;SDS011;4275;42.854;23.222;2023-06-10T12:00:23;29.30;;;27.60;;
8476;SDS011;4275;42.854;23.222;2023-06-10T12:02:55;26.30;;;24.60;;
8476;SDS011;4275;42.854;23.222;2023-06-10T12:05:23;25.02;;;23.52;;
8476;SDS011;4275;42.854;23.222;2023-06-10T12:07:58;27.77;;;26.17;;
8476;SDS011;4275;42.854;23.222;2023-06-10T12:10:39;27.05;;;25.55;;
8476;SDS011;4275;42.854;23.222;2023-06-10T12:13:08;25.33;;;23.83;;
8476;SDS011;4275;42.854;23.222;2023-06-10T12:15:35;25.13;;;23.70;;
8476;SDS011;4275;42.854;23.222;2023-06-10T12:18:03;25.55;;;24.10;;
8476;SDS011;4275;42.854;23.222;2023-06-10T12:20:30;27.08;;;25.58;;
8476;SDS011;4275;42.854;23.222;2023-06-10T12:22:59;24.85;;;23.42;;
8476;SDS011;4275;42.854;23.222;2023-06-10T12:25:34;24.80;;;23.40;;
8476;SDS011;4275;42.854;23.222;2023-06-10T12:28:02;24.80;;;23.33;;
8476;SDS011;4275;42.854;23.222;2023-06-10T12:30:31;25.45;;;23.95;;
8476;SDS011;4275;42.854;23.222;2023-06-10T12:32:58;24.88;;;23.48;;
8476;SDS011;4275;42.854;23.222;2023-06-10T12:35:26;23.67;;;22.38;;
8476;SDS011;4275;42.854;23.222;2023-06-10T12:37:54;22.42;;;21.13;;
8476;SDS011;4275;42.854;23.222;2023-06-10T12:40:25;31.15;;;28.95;;
8476;SDS011;4275;42.854;23.222;2023-06-10T12:42:52;30.92;;;29.02;;
8476;SDS011;4275;42.854;23.222;2023-06-10T12:45:26;33.45;;;31.35;;
8476;SDS011;4275;42.854;23.222;2023-06-10T12:48:05;29.17;;;27.48;;
8476;SDS011;4275;42.854;23.222;2023-06-10T12:50:34;29.85;;;28.05;;
8476;SDS011;4275;42.854;23.222;2023-06-10T12:53:02;29.77;;;27.98;;
8476;SDS011;4275;42.854;23.222;2023-06-10T12:55:29;31.20;;;29.30;;
8476;SDS011;4275;42.854;23.222;2023-06-10T12:57:56;29.13;;;27.42;;
8476;SDS011;4275;42.854;23.222;2023-06-10T13:00:23;28.08;;;26.48;;
8476;SDS011;4275;42.854;23.222;2023-06-10T13:02:54;28.15;;;26.55;;
8476;SDS011;4275;42.854;23.222;2023-06-10T13:05:23;27.48;;;25.90;;
8476;SDS011;4275;42.854;23.222;2023-06-10T13:07:50;28.10;;;26.50;;
8476;SDS011;4275;42.854;23.222;2023-06-10T13:10:17;27.50;;;26.00;;
8476;SDS011;4275;42.854;23.222;2023-06-10T13:12:44;28.10;;;26.50;;
8476;SDS011;4275;42.854;23.222;2023-06-10T13:15:11;29.20;;;27.50;;
8476;SDS011;4275;42.854;23.222;2023-06-10T13:17:39;30.17;;;28.48;;
8476;SDS011;4275;42.854;23.222;2023-06-10T13:20:07;30.65;;;28.85;;
8476;SDS011;4275;42.854;23.222;2023-06-10T13:22:36;29.52;;;27.83;;
8476;SDS011;4275;42.854;23.222;2023-06-10T13:25:04;29.60;;;27.90;;
8476;SDS011;4275;42.854;23.222;2023-06-10T13:27:33;29.40;;;27.70;;
8476;SDS011;4275;42.854;23.222;2023-06-10T13:30:00;30.35;;;28.55;;
8476;SDS011;4275;42.854;23.222;2023-06-10T13:32:27;29.23;;;27.52;;
8476;SDS011;4275;42.854;23.222;2023-06-10T13:34:54;28.55;;;26.95;;
8476;SDS011;4275;42.854;23.222;2023-06-10T13:37:22;27.23;;;25.73;;
8476;SDS011;4275;42.854;23.222;2023-06-10T13:39:50;27.52;;;26.02;;
8476;SDS011;4275;42.854;23.222;2023-06-10T13:42:17;24.75;;;23.45;;
8476;SDS011;4275;42.854;23.222;2023-06-10T13:44:45;24.85;;;23.55;;
8476;SDS011;4275;42.854;23.222;2023-06-10T13:47:12;25.50;;;24.15;;
8476;SDS011;4275;42.854;23.222;2023-06-10T13:49:39;26.45;;;24.95;;
8476;SDS011;4275;42.854;23.222;2023-06-10T13:52:07;23.65;;;22.45;;
8476;SDS011;4275;42.854;23.222;2023-06-10T13:54:34;20.58;;;19.58;;
8476;SDS011;4275;42.854;23.222;2023-06-10T13:57:04;20.45;;;19.45;;
8476;SDS011;4275;42.854;23.222;2023-06-10T13:59:31;21.98;;;20.88;;
8476;SDS011;4275;42.854;23.222;2023-06-10T14:01:58;21.35;;;20.27;;
8476;SDS011;4275;42.854;23.222;2023-06-10T14:04:25;20.17;;;19.17;;
8476;SDS011;4275;42.854;23.222;2023-06-10T14:06:52;18.23;;;17.33;;
8476;SDS011;4275;42.854;23.222;2023-06-10T14:09:19;18.83;;;17.92;;
8476;SDS011;4275;42.854;23.222;2023-06-10T14:11:47;19.35;;;18.35;;
8476;SDS011;4275;42.854;23.222;2023-06-10T14:14:15;18.98;;;17.98;;
8476;SDS011;4275;42.854;23.222;2023-06-10T14:16:42;19.50;;;18.60;;
8476;SDS011;4275;42.854;23.222;2023-06-10T14:19:09;18.10;;;17.20;;
8476;SDS011;4275;42.854;23.222;2023-06-10T14:21:36;17.50;;;16.70;;
8476;SDS011;4275;42.854;23.222;2023-06-10T14:24:03;17.50;;;16.70;;
8476;SDS011;4275;42.854;23.222;2023-06-10T14:26:30;16.85;;;16.05;;
8476;SDS011;4275;42.854;23.222;2023-06-10T14:28:58;17.35;;;16.55;;
8476;SDS011;4275;42.854;23.222;2023-06-10T14:31:26;17.73;;;16.83;;
8476;SDS011;4275;42.854;23.222;2023-06-10T14:33:53;18.20;;;17.20;;
8476;SDS011;4275;42.854;23.222;2023-06-10T14:36:20;18.20;;;17.20;;
8476;SDS011;4275;42.854;23.222;2023-06-10T14:38:47;18.20;;;17.20;;
8476;SDS011;4275;42.854;23.222;2023-06-10T14:41:14;19.90;;;18.60;;
8476;SDS011;4275;42.854;23.222;2023-06-10T14:43:41;18.98;;;17.67;;
8476;SDS011;4275;42.854;23.222;2023-06-10T14:46:08;19.67;;;18.17;;
8476;SDS011;4275;42.854;23.222;2023-06-10T14:48:36;18.08;;;16.88;;
8476;SDS011;4275;42.854;23.222;2023-06-10T14:51:03;19.35;;;17.95;;
8476;SDS011;4275;42.854;23.222;2023-06-10T14:53:30;18.92;;;17.52;;
8476;SDS011;4275;42.854;23.222;2023-06-10T14:55:57;18.42;;;17.13;;
8476;SDS011;4275;42.854;23.222;2023-06-10T14:58:24;17.98;;;16.77;;
8476;SDS011;4275;42.854;23.222;2023-06-10T15:00:51;18.23;;;16.92;;
8476;SDS011;4275;42.854;23.222;2023-06-10T15:03:18;18.20;;;17.00;;
8476;SDS011;4275;42.854;23.222;2023-06-10T15:05:46;18.30;;;17.00;;